createdAt,value
2019-06-10T00:00:41.775Z,15.85
2019-06-10T00:03:11.680Z,15.88
2019-06-10T00:05:41.482Z,15.85
2019-06-10T00:08:11.798Z,15.81
2019-06-10T00:10:42.064Z,15.84
2019-06-10T00:13:11.769Z,15.85
2019-06-10T00:18:32.825Z,15.83
2019-06-10T00:20:41.234Z,15.79
2019-06-10T00:23:12.338Z,15.75
2019-06-10T00:25:41.424Z,15.72
2019-06-10T00:28:12.050Z,15.70
2019-06-10T00:30:41.622Z,15.70
2019-06-10T00:33:12.703Z,15.63
2019-06-10T00:35:41.562Z,15.58
2019-06-10T00:38:14.065Z,15.54
2019-06-10T00:40:41.873Z,15.52
2019-06-10T00:43:13.059Z,15.52
2019-06-10T00:45:41.544Z,15.51
2019-06-10T00:48:21.074Z,15.51
2019-06-10T00:50:41.802Z,15.04
2019-06-10T00:53:14.407Z,15.45
2019-06-10T00:55:42.647Z,15.45
2019-06-10T00:58:14.420Z,15.45
2019-06-10T01:00:43.185Z,15.44
2019-06-10T01:03:15.105Z,15.42
2019-06-10T01:05:42.523Z,15.41
2019-06-10T01:08:13.967Z,15.37
2019-06-10T01:10:43.836Z,15.32
2019-06-10T01:13:15.113Z,15.27
2019-06-10T01:15:43.620Z,15.26
2019-06-10T01:20:42.855Z,15.19
2019-06-10T01:23:13.499Z,15.15
2019-06-10T01:25:42.681Z,15.17
2019-06-10T01:28:14.561Z,15.12
2019-06-10T01:30:42.197Z,15.12
2019-06-10T01:33:12.852Z,15.11
2019-06-10T01:35:41.828Z,15.11
2019-06-10T01:38:13.447Z,15.06
2019-06-10T01:40:42.150Z,15.03
2019-06-10T01:43:13.920Z,15.02
2019-06-10T01:45:42.352Z,14.97
2019-06-10T01:48:12.090Z,14.97
2019-06-10T01:50:41.973Z,14.94
2019-06-10T01:53:13.747Z,14.86
2019-06-10T01:55:42.039Z,14.84
2019-06-10T01:58:14.399Z,14.83
2019-06-10T02:00:42.958Z,14.87
2019-06-10T02:03:16.273Z,14.48
2019-06-10T02:05:42.879Z,14.89
2019-06-10T02:08:14.554Z,14.86
2019-06-10T02:10:42.275Z,14.90
2019-06-10T02:13:14.788Z,14.89
2019-06-10T02:15:43.112Z,14.80
2019-06-10T02:18:13.562Z,14.78
2019-06-10T02:20:42.395Z,14.63
2019-06-10T02:23:13.937Z,14.63
2019-06-10T02:25:41.659Z,14.58
2019-06-10T02:28:13.111Z,14.56
2019-06-10T02:30:50.216Z,14.53
2019-06-10T02:33:14.830Z,14.49
2019-06-10T02:35:47.928Z,14.45
2019-06-10T02:38:19.336Z,14.42
2019-06-10T02:40:43.563Z,14.39
2019-06-10T02:43:17.844Z,14.33
2019-06-10T02:45:44.926Z,14.24
2019-06-10T02:48:17.709Z,14.22
2019-06-10T02:50:54.159Z,14.22
2019-06-10T02:53:30.269Z,14.18
2019-06-10T02:55:54.198Z,14.19
2019-06-10T02:58:30.449Z,14.12
2019-06-10T03:00:54.549Z,14.09
2019-06-10T03:03:35.904Z,14.03
2019-06-10T03:05:54.411Z,14.03
2019-06-10T03:08:28.661Z,14.01
2019-06-10T03:10:54.806Z,13.96
2019-06-10T03:13:25.601Z,13.89
2019-06-10T03:16:08.126Z,13.91
2019-06-10T03:18:36.914Z,13.94
2019-06-10T03:21:05.758Z,13.93
2019-06-10T03:23:34.536Z,13.91
2019-06-10T03:26:04.036Z,13.90
2019-06-10T03:28:33.388Z,13.88
2019-06-10T03:31:05.670Z,13.93
2019-06-10T03:33:41.046Z,13.94
2019-06-10T03:36:03.535Z,13.93
2019-06-10T03:38:32.782Z,13.94
2019-06-10T03:41:03.202Z,13.94
2019-06-10T03:43:33.064Z,13.94
2019-06-10T03:46:03.231Z,13.94
2019-06-10T03:48:33.053Z,13.86
2019-06-10T03:51:03.249Z,13.84
2019-06-10T03:53:33.734Z,13.84
2019-06-10T03:56:02.845Z,13.87
2019-06-10T03:58:32.816Z,13.87
2019-06-10T04:01:03.077Z,13.90
2019-06-10T04:03:33.795Z,14.00
2019-06-10T04:06:02.930Z,13.89
2019-06-10T04:08:32.977Z,13.91
2019-06-10T04:11:03.000Z,13.95
2019-06-10T04:13:33.860Z,13.98
2019-06-10T04:16:02.770Z,14.00
2019-06-10T04:18:32.744Z,14.08
2019-06-10T04:21:02.408Z,14.19
2019-06-10T04:23:33.482Z,14.32
2019-06-10T04:26:02.449Z,14.47
2019-06-10T04:28:33.765Z,14.54
2019-06-10T04:31:02.682Z,14.63
2019-06-10T04:33:32.879Z,14.74
2019-06-10T04:36:02.835Z,15.01
2019-06-10T04:38:32.690Z,15.62
2019-06-10T04:41:03.316Z,15.50
2019-06-10T04:43:32.817Z,15.40
2019-06-10T04:46:02.293Z,15.53
2019-06-10T04:48:32.632Z,15.67
2019-06-10T04:51:02.880Z,15.55
2019-06-10T04:53:33.037Z,15.48
2019-06-10T04:56:03.064Z,15.51
2019-06-10T04:58:33.529Z,15.36
2019-06-10T05:01:03.360Z,15.32
2019-06-10T05:03:33.080Z,15.36
2019-06-10T05:06:03.319Z,15.94
2019-06-10T05:08:33.657Z,16.10
2019-06-10T05:11:03.895Z,16.30
2019-06-10T05:13:33.788Z,16.48
2019-06-10T05:16:03.833Z,16.48
2019-06-10T05:18:33.447Z,16.48
2019-06-10T05:21:03.047Z,16.42
2019-06-10T05:23:32.843Z,16.20
2019-06-10T05:26:02.986Z,16.25
2019-06-10T05:28:34.271Z,16.15
2019-06-10T05:31:03.117Z,16.11
2019-06-10T05:33:33.403Z,16.07
2019-06-10T05:36:02.888Z,16.10
2019-06-10T05:38:35.091Z,16.07
2019-06-10T05:41:03.168Z,16.24
2019-06-10T05:43:34.266Z,16.45
2019-06-10T05:46:03.284Z,16.45
2019-06-10T05:48:33.573Z,16.41
2019-06-10T05:51:06.636Z,16.52
2019-06-10T05:53:35.544Z,16.59
2019-06-10T05:56:06.258Z,16.55
2019-06-10T05:58:35.992Z,16.39
2019-06-10T06:01:05.585Z,16.52
2019-06-10T06:03:36.939Z,16.52
2019-06-10T06:06:05.819Z,16.88
2019-06-10T06:08:35.477Z,17.28
2019-06-10T06:11:05.633Z,17.63
2019-06-10T06:13:39.374Z,17.50
2019-06-10T06:16:12.367Z,17.85
2019-06-10T06:18:42.486Z,18.55
2019-06-10T06:21:25.655Z,19.22
2019-06-10T06:23:43.836Z,19.05
2019-06-10T06:26:16.255Z,19.05
2019-06-10T06:28:43.515Z,18.88
2019-06-10T06:31:12.931Z,19.03
2019-06-10T06:33:43.480Z,19.12
2019-06-10T06:36:12.832Z,19.28
2019-06-10T06:38:43.841Z,19.53
2019-06-10T06:41:13.671Z,19.14
2019-06-10T06:43:45.414Z,18.79
2019-06-10T06:46:13.644Z,19.18
2019-06-10T06:48:44.035Z,19.48
2019-06-10T06:51:15.848Z,19.95
2019-06-10T06:53:51.750Z,20.93
2019-06-10T06:56:16.333Z,21.58
2019-06-10T06:58:45.955Z,22.04
2019-06-10T07:01:15.058Z,21.75
2019-06-10T07:03:45.107Z,21.04
2019-06-10T07:06:16.163Z,20.86
2019-06-10T07:09:00.391Z,20.96
2019-06-10T07:11:19.116Z,21.47
2019-06-10T07:13:48.262Z,21.89
2019-06-10T07:16:17.691Z,22.05
2019-06-10T07:18:50.268Z,21.94
2019-06-10T07:21:17.582Z,21.06
2019-06-10T07:23:47.134Z,21.03
2019-06-10T07:26:16.513Z,20.29
2019-06-10T07:28:47.495Z,20.08
2019-06-10T07:31:23.877Z,19.98
2019-06-10T07:33:47.460Z,19.92
2019-06-10T07:36:16.750Z,19.82
2019-06-10T07:38:49.066Z,19.74
2019-06-10T07:41:16.723Z,19.61
2019-06-10T07:43:55.107Z,19.57
2019-06-10T07:46:33.537Z,19.65
2019-06-10T07:49:03.440Z,19.44
2019-06-10T07:51:34.203Z,19.50
2019-06-10T07:54:03.945Z,19.72
2019-06-10T07:56:38.890Z,19.82
2019-06-10T07:59:05.395Z,20.11
2019-06-10T08:01:35.096Z,20.45
2019-06-10T08:04:05.588Z,21.14
2019-06-10T08:06:35.159Z,20.92
2019-06-10T08:09:06.981Z,22.01
2019-06-10T08:11:37.094Z,22.22
2019-06-10T08:14:06.245Z,21.92
2019-06-10T08:16:35.694Z,21.85
2019-06-10T08:19:33.796Z,21.44
2019-06-10T08:21:37.137Z,21.44
2019-06-10T08:24:06.428Z,21.22
2019-06-10T08:26:35.469Z,21.72
2019-06-10T08:29:05.500Z,22.67
2019-06-10T08:31:34.282Z,22.98
2019-06-10T08:34:03.292Z,23.14
2019-06-10T08:36:33.299Z,22.71
2019-06-10T08:39:03.241Z,22.62
2019-06-10T08:41:32.396Z,23.13
2019-06-10T08:44:02.251Z,23.23
2019-06-10T08:46:32.962Z,23.52
2019-06-10T08:49:03.291Z,23.78
2019-06-10T08:51:32.618Z,23.65
2019-06-10T08:54:02.371Z,23.83
2019-06-10T08:56:32.787Z,23.16
2019-06-10T08:59:03.237Z,23.12
2019-06-10T09:01:33.406Z,23.75
2019-06-10T09:04:03.255Z,24.33
2019-06-10T09:06:32.905Z,24.33
2019-06-10T09:09:03.174Z,24.15
2019-06-10T09:11:32.855Z,24.57
2019-06-10T09:14:02.538Z,24.76
2019-06-10T09:16:32.427Z,24.25
2019-06-10T09:19:02.377Z,23.89
2019-06-10T09:21:33.082Z,23.55
2019-06-10T09:24:03.935Z,23.81
2019-06-10T09:26:33.668Z,24.30
2019-06-10T09:29:03.067Z,24.13
2019-06-10T09:31:33.187Z,23.73
2019-06-10T09:34:03.940Z,23.02
2019-06-10T09:36:33.027Z,22.73
2019-06-10T09:39:04.101Z,22.53
2019-06-10T09:41:40.147Z,23.19
2019-06-10T09:44:03.571Z,24.08
2019-06-10T09:46:34.713Z,24.18
2019-06-10T09:49:05.476Z,24.62
2019-06-10T09:51:34.959Z,24.19
2019-06-10T09:54:06.565Z,24.13
2019-06-10T09:56:34.540Z,24.25
2019-06-10T09:59:04.077Z,24.73
2019-06-10T10:01:33.112Z,24.98
2019-06-10T10:04:01.989Z,24.41
2019-06-10T10:06:32.694Z,24.52
2019-06-10T10:09:03.449Z,24.25
2019-06-10T10:11:34.524Z,23.85
2019-06-10T10:14:06.228Z,24.57
2019-06-10T10:16:38.691Z,25.18
2019-06-10T10:19:12.872Z,25.07
2019-06-10T10:21:42.313Z,24.79
2019-06-10T10:24:15.060Z,24.61
2019-06-10T10:26:48.554Z,24.40
2019-06-10T10:29:17.133Z,24.38
2019-06-10T10:31:50.744Z,24.49
2019-06-10T10:34:19.854Z,24.57
2019-06-10T10:36:54.957Z,24.34
2019-06-10T10:39:24.663Z,24.36
2019-06-10T10:41:57.048Z,24.26
2019-06-10T10:44:26.863Z,24.60
2019-06-10T10:46:57.077Z,24.78
2019-06-10T10:49:27.181Z,24.31
2019-06-10T10:51:57.505Z,23.70
2019-06-10T10:54:36.089Z,23.98
2019-06-10T10:57:02.648Z,24.19
2019-06-10T10:59:33.325Z,23.88
2019-06-10T11:02:03.456Z,24.10
2019-06-10T11:04:34.572Z,24.19
2019-06-10T11:07:03.408Z,23.89
2019-06-10T11:09:33.095Z,23.76
2019-06-10T11:12:03.459Z,24.44
2019-06-10T11:14:34.097Z,24.77
2019-06-10T11:17:03.179Z,25.01
2019-06-10T11:19:33.050Z,25.24
2019-06-10T11:22:03.148Z,25.74
2019-06-10T11:24:37.679Z,24.99
2019-06-10T11:27:03.330Z,24.45
2019-06-10T11:29:32.889Z,24.06
2019-06-10T11:32:03.068Z,24.42
2019-06-10T11:34:33.361Z,24.55
2019-06-10T11:37:02.466Z,24.59
2019-06-10T11:39:33.834Z,24.48
2019-06-10T11:42:04.003Z,25.10
2019-06-10T11:44:33.931Z,24.80
2019-06-10T11:47:03.285Z,25.00
2019-06-10T11:49:32.628Z,24.74
2019-06-10T11:52:03.232Z,24.67
2019-06-10T11:54:47.858Z,24.09
2019-06-10T11:57:20.042Z,24.24
2019-06-10T11:59:36.490Z,24.16
2019-06-10T12:02:06.185Z,24.56
2019-06-10T12:04:35.167Z,24.35
2019-06-10T12:07:03.940Z,24.06
2019-06-10T12:09:33.393Z,24.47
2019-06-10T12:12:02.909Z,24.95
2019-06-10T12:14:33.118Z,25.06
2019-06-10T12:17:21.797Z,25.06
2019-06-10T12:19:34.071Z,24.97
2019-06-10T12:22:07.136Z,25.00
2019-06-10T12:24:34.248Z,25.11
2019-06-10T12:27:05.045Z,24.80
2019-06-10T12:29:34.949Z,25.06
2019-06-10T12:32:07.355Z,24.90
2019-06-10T12:34:34.549Z,24.64
2019-06-10T12:37:10.728Z,24.83
2019-06-10T12:39:35.085Z,24.73
2019-06-10T12:42:06.401Z,24.79
2019-06-10T12:44:34.925Z,24.87
2019-06-10T12:47:06.362Z,24.96
2019-06-10T12:49:34.198Z,25.24
2019-06-10T12:52:07.178Z,25.03
2019-06-10T12:54:33.577Z,25.19
2019-06-10T12:57:04.755Z,24.98
2019-06-10T12:59:32.854Z,24.57
2019-06-10T13:02:14.339Z,24.52
2019-06-10T13:04:33.134Z,24.01
2019-06-10T13:07:05.202Z,23.96
2019-06-10T13:09:32.937Z,24.08
2019-06-10T13:12:02.162Z,24.50
2019-06-10T13:14:32.576Z,25.10
2019-06-10T13:17:02.964Z,25.62
2019-06-10T13:19:34.347Z,25.89
2019-06-10T13:22:05.970Z,25.90
2019-06-10T13:24:33.825Z,25.99
2019-06-10T13:27:03.867Z,25.99
2019-06-10T13:29:33.387Z,26.05
2019-06-10T13:32:04.193Z,26.01
2019-06-10T13:34:32.912Z,26.11
2019-06-10T13:37:03.880Z,26.98
2019-06-10T13:39:33.701Z,26.89
2019-06-10T13:42:04.997Z,27.03
2019-06-10T13:44:33.009Z,27.71
2019-06-10T13:47:05.202Z,27.62
2019-06-10T13:49:33.156Z,27.62
2019-06-10T13:52:05.729Z,27.29
2019-06-10T13:54:32.508Z,26.62
2019-06-10T13:57:03.673Z,26.95
2019-06-10T13:59:31.805Z,27.05
2019-06-10T14:02:03.731Z,26.96
2019-06-10T14:04:33.434Z,27.00
2019-06-10T14:07:04.227Z,27.07
2019-06-10T14:09:32.969Z,26.85
2019-06-10T14:12:02.095Z,26.51
2019-06-10T14:14:33.128Z,25.93
2019-06-10T14:17:01.688Z,25.93
2019-06-10T14:19:32.481Z,25.84
2019-06-10T14:22:02.450Z,25.85
2019-06-10T14:24:33.086Z,25.81
2019-06-10T14:27:04.161Z,25.85
2019-06-10T14:29:32.687Z,26.07
2019-06-10T14:32:03.545Z,25.71
2019-06-10T14:34:32.604Z,26.03
2019-06-10T14:37:01.501Z,26.16
2019-06-10T14:39:32.775Z,26.34
2019-06-10T14:42:03.329Z,26.22
2019-06-10T14:44:35.396Z,26.31
2019-06-10T14:47:06.510Z,26.25
2019-06-10T14:49:35.511Z,26.50
2019-06-10T14:52:05.017Z,26.38
2019-06-10T14:54:33.862Z,25.73
2019-06-10T14:57:02.828Z,26.54
2019-06-10T14:59:31.659Z,26.30
2019-06-10T15:02:02.634Z,25.86
2019-06-10T15:04:33.148Z,26.02
2019-06-10T15:07:02.915Z,26.50
2019-06-10T15:09:33.471Z,26.46
2019-06-10T15:12:02.932Z,26.63
2019-06-10T15:14:32.355Z,26.39
2019-06-10T15:17:02.856Z,26.53
2019-06-10T15:19:33.230Z,26.26
2019-06-10T15:22:03.076Z,26.14
2019-06-10T15:24:33.422Z,26.11
2019-06-10T15:27:11.956Z,25.92
2019-06-10T15:29:32.972Z,25.95
2019-06-10T15:32:10.283Z,25.61
2019-06-10T15:34:32.633Z,25.36
2019-06-10T15:37:02.809Z,25.06
2019-06-10T15:39:33.326Z,25.14
2019-06-10T15:42:03.061Z,25.14
2019-06-10T15:44:52.266Z,25.29
2019-06-10T15:47:03.181Z,25.27
2019-06-10T15:49:32.925Z,25.48
2019-06-10T15:52:03.327Z,25.58
2019-06-10T15:54:33.322Z,25.49
2019-06-10T15:57:03.268Z,25.46
2019-06-10T15:59:32.204Z,25.42
2019-06-10T16:02:02.602Z,25.35
2019-06-10T16:04:35.122Z,25.26
2019-06-10T16:07:02.562Z,25.24
2019-06-10T16:09:32.161Z,25.03
2019-06-10T16:12:02.925Z,25.03
2019-06-10T16:14:33.189Z,24.93
2019-06-10T16:17:03.129Z,24.67
2019-06-10T16:19:32.899Z,24.39
2019-06-10T16:22:03.221Z,24.01
2019-06-10T16:24:33.301Z,23.72
2019-06-10T16:27:03.373Z,23.46
2019-06-10T16:29:33.327Z,23.27
2019-06-10T16:32:02.738Z,23.10
2019-06-10T16:34:32.538Z,22.82
2019-06-10T16:37:02.380Z,22.64
2019-06-10T16:39:32.621Z,22.55
2019-06-10T16:42:02.969Z,22.40
2019-06-10T16:44:32.934Z,22.06
2019-06-10T16:47:03.195Z,22.10
2019-06-10T16:49:32.815Z,22.09
2019-06-10T16:52:02.850Z,22.14
2019-06-10T16:54:32.984Z,22.01
2019-06-10T16:57:03.794Z,22.14
2019-06-10T16:59:33.000Z,22.15
2019-06-10T17:02:02.373Z,22.10
2019-06-10T17:04:33.200Z,21.98
2019-06-10T17:07:02.338Z,21.89
2019-06-10T17:09:32.866Z,21.84
2019-06-10T17:12:02.341Z,21.70
2019-06-10T17:14:33.571Z,21.64
2019-06-10T17:17:03.521Z,21.61
2019-06-10T17:19:33.389Z,20.85
2019-06-10T17:22:02.474Z,20.21
2019-06-10T17:24:33.745Z,19.79
2019-06-10T17:27:02.774Z,19.19
2019-06-10T17:29:33.509Z,19.07
2019-06-10T17:32:03.017Z,19.17
2019-06-10T17:34:33.850Z,19.24
2019-06-10T17:37:03.100Z,19.30
2019-06-10T17:39:34.629Z,19.29
2019-06-10T17:42:02.674Z,19.36
2019-06-10T17:44:36.642Z,19.36
2019-06-10T17:47:05.563Z,19.46
2019-06-10T17:49:34.928Z,19.40
2019-06-10T17:52:04.103Z,19.29
2019-06-10T17:54:32.869Z,19.22
2019-06-10T17:57:02.422Z,19.26
2019-06-10T17:59:34.106Z,19.22
2019-06-10T18:02:02.985Z,19.19
2019-06-10T18:04:31.951Z,19.22
2019-06-10T18:07:02.291Z,19.23
2019-06-10T18:09:36.560Z,19.24
2019-06-10T18:12:04.380Z,19.24
2019-06-10T18:14:36.215Z,19.27
2019-06-10T18:17:06.559Z,19.29
2019-06-10T18:19:37.480Z,19.36
2019-06-10T18:22:06.408Z,19.38
2019-06-10T18:24:35.143Z,19.31
2019-06-10T18:27:05.159Z,19.32
2019-06-10T18:29:35.770Z,18.60
2019-06-10T18:32:05.320Z,19.29
2019-06-10T18:34:37.818Z,19.25
2019-06-10T18:37:06.418Z,19.23
2019-06-10T18:39:37.139Z,19.15
2019-06-10T18:42:05.982Z,18.91
2019-06-10T18:44:37.065Z,18.99
2019-06-10T18:47:05.322Z,18.96
2019-06-10T18:49:35.902Z,18.32
2019-06-10T18:52:12.523Z,17.88
2019-06-10T18:55:12.138Z,-143.00
